sensor_id;sensor_type;location;lat;lon;timestamp;pressure;altitude;pressure_sealevel;temperature;humidity
25238;BME280;13185;50.872;5.306;2022-08-21T00:02:26;101393.41;;;15.79;83.02
25238;BME280;13185;50.872;5.306;2022-08-21T00:04:53;101399.25;;;15.73;83.18
25238;BME280;13185;50.872;5.306;2022-08-21T00:07:19;101397.78;;;15.69;83.31
25238;BME280;13185;50.872;5.306;2022-08-21T00:09:44;101404.06;;;15.70;83.34
25238;BME280;13185;50.872;5.306;2022-08-21T00:12:10;101402.34;;;15.69;83.52
25238;BME280;13185;50.872;5.306;2022-08-21T00:14:36;101395.22;;;15.68;83.33
25238;BME280;13185;50.872;5.306;2022-08-21T00:17:03;101397.06;;;15.67;83.59
25238;BME280;13185;50.872;5.306;2022-08-21T00:19:28;101402.47;;;15.67;83.08
25238;BME280;13185;50.872;5.306;2022-08-21T00:21:55;101395.47;;;15.65;83.23
25238;BME280;13185;50.872;5.306;2022-08-21T00:24:21;101395.81;;;15.60;83.25
25238;BME280;13185;50.872;5.306;2022-08-21T00:26:47;101391.47;;;15.57;83.02
25238;BME280;13185;50.872;5.306;2022-08-21T00:29:13;101389.88;;;15.55;82.99
25238;BME280;13185;50.872;5.306;2022-08-21T00:31:39;101388.63;;;15.48;83.27
25238;BME280;13185;50.872;5.306;2022-08-21T00:34:05;101388.63;;;15.48;83.25
25238;BME280;13185;50.872;5.306;2022-08-21T00:36:32;101381.59;;;15.45;83.45
25238;BME280;13185;50.872;5.306;2022-08-21T00:38:57;101392.53;;;15.44;83.14
25238;BME280;13185;50.872;5.306;2022-08-21T00:41:23;101384.03;;;15.37;83.65
25238;BME280;13185;50.872;5.306;2022-08-21T00:43:49;101383.75;;;15.29;83.94
25238;BME280;13185;50.872;5.306;2022-08-21T00:46:15;101387.56;;;15.26;84.04
25238;BME280;13185;50.872;5.306;2022-08-21T00:48:40;101379.81;;;15.22;83.94
25238;BME280;13185;50.872;5.306;2022-08-21T00:51:16;101384.31;;;15.21;83.83
25238;BME280;13185;50.872;5.306;2022-08-21T00:53:48;101379.28;;;15.17;84.29
25238;BME280;13185;50.872;5.306;2022-08-21T00:56:17;101379.41;;;15.15;84.35
25238;BME280;13185;50.872;5.306;2022-08-21T00:58:43;101377.03;;;15.11;84.58
25238;BME280;13185;50.872;5.306;2022-08-21T01:01:08;101373.59;;;15.09;84.76
25238;BME280;13185;50.872;5.306;2022-08-21T01:03:35;101375.66;;;15.05;84.80
25238;BME280;13185;50.872;5.306;2022-08-21T01:06:00;101386.59;;;15.04;84.65
25238;BME280;13185;50.872;5.306;2022-08-21T01:08:28;101383.25;;;15.00;84.73
25238;BME280;13185;50.872;5.306;2022-08-21T01:10:54;101385.94;;;15.00;84.78
25238;BME280;13185;50.872;5.306;2022-08-21T01:13:24;101382.38;;;14.99;84.49
25238;BME280;13185;50.872;5.306;2022-08-21T01:15:52;101380.66;;;14.98;84.45
25238;BME280;13185;50.872;5.306;2022-08-21T01:18:20;101391.69;;;14.95;84.89
25238;BME280;13185;50.872;5.306;2022-08-21T01:21:10;101394.75;;;14.91;85.08
25238;BME280;13185;50.872;5.306;2022-08-21T01:23:37;101390.44;;;14.88;84.95
25238;BME280;13185;50.872;5.306;2022-08-21T01:26:04;101392.63;;;14.83;84.92
25238;BME280;13185;50.872;5.306;2022-08-21T01:28:35;101400.66;;;14.72;85.04
25238;BME280;13185;50.872;5.306;2022-08-21T01:31:05;101388.25;;;14.69;85.28
25238;BME280;13185;50.872;5.306;2022-08-21T01:33:31;101389.31;;;14.67;85.33
25238;BME280;13185;50.872;5.306;2022-08-21T01:35:57;101384.91;;;14.66;85.43
25238;BME280;13185;50.872;5.306;2022-08-21T01:38:22;101383.06;;;14.66;85.52
25238;BME280;13185;50.872;5.306;2022-08-21T01:40:48;101390.41;;;14.64;85.83
25238;BME280;13185;50.872;5.306;2022-08-21T01:43:13;101385.25;;;14.61;85.97
25238;BME280;13185;50.872;5.306;2022-08-21T01:45:39;101381.03;;;14.57;86.06
25238;BME280;13185;50.872;5.306;2022-08-21T01:48:05;101380.84;;;14.48;86.27
25238;BME280;13185;50.872;5.306;2022-08-21T01:50:30;101390.44;;;14.39;86.53
25238;BME280;13185;50.872;5.306;2022-08-21T01:52:56;101390.78;;;14.34;86.73
25238;BME280;13185;50.872;5.306;2022-08-21T01:55:22;101381.81;;;14.34;87.06
25238;BME280;13185;50.872;5.306;2022-08-21T01:57:48;101378.25;;;14.33;87.17
25238;BME280;13185;50.872;5.306;2022-08-21T02:00:15;101380.94;;;14.33;87.39
25238;BME280;13185;50.872;5.306;2022-08-21T02:02:42;101389.03;;;14.33;87.19
25238;BME280;13185;50.872;5.306;2022-08-21T02:05:10;101373.09;;;14.30;87.49
25238;BME280;13185;50.872;5.306;2022-08-21T02:07:48;101384.97;;;14.28;87.55
25238;BME280;13185;50.872;5.306;2022-08-21T02:10:17;101385.16;;;14.25;87.35
25238;BME280;13185;50.872;5.306;2022-08-21T02:12:43;101385.28;;;14.23;87.55
25238;BME280;13185;50.872;5.306;2022-08-21T02:15:08;101380.75;;;14.24;87.08
25238;BME280;13185;50.872;5.306;2022-08-21T02:17:47;101381.72;;;14.23;86.96
25238;BME280;13185;50.872;5.306;2022-08-21T02:20:24;101387.00;;;14.24;86.97
25238;BME280;13185;50.872;5.306;2022-08-21T02:22:51;101383.56;;;14.22;86.79
25238;BME280;13185;50.872;5.306;2022-08-21T02:25:17;101372.88;;;14.21;87.01
25238;BME280;13185;50.872;5.306;2022-08-21T02:27:45;101388.41;;;14.17;87.13
25238;BME280;13185;50.872;5.306;2022-08-21T02:30:19;101378.06;;;14.11;87.21
25238;BME280;13185;50.872;5.306;2022-08-21T02:32:45;101380.13;;;14.07;87.13
25238;BME280;13185;50.872;5.306;2022-08-21T02:35:10;101374.94;;;14.04;87.12
25238;BME280;13185;50.872;5.306;2022-08-21T02:37:51;101374.06;;;14.04;87.10
25238;BME280;13185;50.872;5.306;2022-08-21T02:40:20;101368.69;;;14.04;87.41
25238;BME280;13185;50.872;5.306;2022-08-21T02:42:46;101371.59;;;14.01;87.75
25238;BME280;13185;50.872;5.306;2022-08-21T02:45:13;101368.06;;;14.00;88.19
25238;BME280;13185;50.872;5.306;2022-08-21T02:47:40;101371.72;;;13.99;88.14
25238;BME280;13185;50.872;5.306;2022-08-21T02:50:11;101373.44;;;14.00;88.06
25238;BME280;13185;50.872;5.306;2022-08-21T02:52:37;101376.88;;;14.02;87.99
25238;BME280;13185;50.872;5.306;2022-08-21T02:55:02;101368.91;;;14.01;88.04
25238;BME280;13185;50.872;5.306;2022-08-21T02:57:28;101369.88;;;14.00;87.80
25238;BME280;13185;50.872;5.306;2022-08-21T02:59:53;101375.50;;;13.97;88.00
25238;BME280;13185;50.872;5.306;2022-08-21T03:02:19;101373.88;;;13.94;88.14
25238;BME280;13185;50.872;5.306;2022-08-21T03:04:46;101382.19;;;13.91;88.13
25238;BME280;13185;50.872;5.306;2022-08-21T03:07:12;101373.34;;;13.89;88.24
25238;BME280;13185;50.872;5.306;2022-08-21T03:09:37;101376.16;;;13.88;88.27
25238;BME280;13185;50.872;5.306;2022-08-21T03:12:03;101370.88;;;13.86;88.69
25238;BME280;13185;50.872;5.306;2022-08-21T03:14:28;101366.66;;;13.82;88.56
25238;BME280;13185;50.872;5.306;2022-08-21T03:16:54;101373.13;;;13.79;88.79
25238;BME280;13185;50.872;5.306;2022-08-21T03:19:19;101365.34;;;13.75;88.98
25238;BME280;13185;50.872;5.306;2022-08-21T03:21:45;101372.69;;;13.73;89.08
25238;BME280;13185;50.872;5.306;2022-08-21T03:24:11;101370.22;;;13.70;89.69
25238;BME280;13185;50.872;5.306;2022-08-21T03:26:37;101373.13;;;13.67;89.26
25238;BME280;13185;50.872;5.306;2022-08-21T03:29:02;101375.94;;;13.65;89.05
25238;BME280;13185;50.872;5.306;2022-08-21T03:31:28;101373.44;;;13.62;88.86
25238;BME280;13185;50.872;5.306;2022-08-21T03:33:56;101375.25;;;13.62;88.65
25238;BME280;13185;50.872;5.306;2022-08-21T03:36:22;101377.22;;;13.60;88.88
25238;BME280;13185;50.872;5.306;2022-08-21T03:38:48;101369.13;;;13.60;88.69
25238;BME280;13185;50.872;5.306;2022-08-21T03:41:13;101375.47;;;13.58;88.59
25238;BME280;13185;50.872;5.306;2022-08-21T03:43:39;101370.50;;;13.52;88.51
25238;BME280;13185;50.872;5.306;2022-08-21T03:46:05;101380.63;;;13.49;88.57
25238;BME280;13185;50.872;5.306;2022-08-21T03:48:31;101383.34;;;13.49;88.92
25238;BME280;13185;50.872;5.306;2022-08-21T03:50:57;101375.47;;;13.46;89.30
25238;BME280;13185;50.872;5.306;2022-08-21T03:53:24;101372.00;;;13.44;90.02
25238;BME280;13185;50.872;5.306;2022-08-21T03:55:51;101369.31;;;13.44;90.23
25238;BME280;13185;50.872;5.306;2022-08-21T03:58:21;101374.03;;;13.40;90.21
25238;BME280;13185;50.872;5.306;2022-08-21T04:00:50;101372.31;;;13.39;90.12
25238;BME280;13185;50.872;5.306;2022-08-21T04:03:16;101369.75;;;13.38;90.39
25238;BME280;13185;50.872;5.306;2022-08-21T04:05:42;101364.47;;;13.36;90.25
25238;BME280;13185;50.872;5.306;2022-08-21T04:08:10;101369.19;;;13.33;90.49
25238;BME280;13185;50.872;5.306;2022-08-21T04:10:37;101363.38;;;13.26;91.14
25238;BME280;13185;50.872;5.306;2022-08-21T04:13:04;101363.66;;;13.21;91.42
25238;BME280;13185;50.872;5.306;2022-08-21T04:15:30;101362.78;;;13.21;91.86
25238;BME280;13185;50.872;5.306;2022-08-21T04:17:56;101358.28;;;13.21;92.17
25238;BME280;13185;50.872;5.306;2022-08-21T04:20:22;101353.00;;;13.20;92.37
25238;BME280;13185;50.872;5.306;2022-08-21T04:22:48;101358.28;;;13.21;92.29
25238;BME280;13185;50.872;5.306;2022-08-21T04:25:16;101352.88;;;13.21;92.04
25238;BME280;13185;50.872;5.306;2022-08-21T04:27:42;101359.13;;;13.22;91.22
25238;BME280;13185;50.872;5.306;2022-08-21T04:30:09;101359.25;;;13.20;91.45
25238;BME280;13185;50.872;5.306;2022-08-21T04:32:36;101358.56;;;13.17;91.71
25238;BME280;13185;50.872;5.306;2022-08-21T04:35:07;101366.94;;;13.12;91.71
25238;BME280;13185;50.872;5.306;2022-08-21T04:37:33;101367.03;;;13.11;91.96
25238;BME280;13185;50.872;5.306;2022-08-21T04:39:59;101372.44;;;13.11;92.23
25238;BME280;13185;50.872;5.306;2022-08-21T04:42:26;101376.09;;;13.10;92.29
25238;BME280;13185;50.872;5.306;2022-08-21T04:44:52;101377.06;;;13.09;92.60
25238;BME280;13185;50.872;5.306;2022-08-21T04:47:17;101371.88;;;13.06;92.65
25238;BME280;13185;50.872;5.306;2022-08-21T04:49:44;101375.44;;;13.06;92.70
25238;BME280;13185;50.872;5.306;2022-08-21T04:52:11;101383.63;;;13.05;92.67
25238;BME280;13185;50.872;5.306;2022-08-21T04:54:37;101391.72;;;13.05;92.71
25238;BME280;13185;50.872;5.306;2022-08-21T04:57:06;101393.53;;;13.04;92.64
25238;BME280;13185;50.872;5.306;2022-08-21T04:59:44;101379.22;;;13.04;92.48
25238;BME280;13185;50.872;5.306;2022-08-21T05:02:11;101381.91;;;13.04;92.65
25238;BME280;13185;50.872;5.306;2022-08-21T05:04:45;101389.00;;;13.05;92.41
25238;BME280;13185;50.872;5.306;2022-08-21T05:07:14;101382.75;;;13.04;92.58
25238;BME280;13185;50.872;5.306;2022-08-21T05:09:41;101395.25;;;13.05;92.83
25238;BME280;13185;50.872;5.306;2022-08-21T05:12:06;101393.31;;;13.07;93.20
25238;BME280;13185;50.872;5.306;2022-08-21T05:14:32;101393.97;;;13.11;93.49
25238;BME280;13185;50.872;5.306;2022-08-21T05:16:58;101392.13;;;13.11;94.35
25238;BME280;13185;50.872;5.306;2022-08-21T05:19:24;101387.53;;;13.13;94.57
25238;BME280;13185;50.872;5.306;2022-08-21T05:21:51;101391.75;;;13.17;94.85
25238;BME280;13185;50.872;5.306;2022-08-21T05:24:17;101382.22;;;13.26;95.33
25238;BME280;13185;50.872;5.306;2022-08-21T05:26:43;101391.19;;;13.39;95.31
25238;BME280;13185;50.872;5.306;2022-08-21T05:29:10;101387.97;;;13.47;94.71
25238;BME280;13185;50.872;5.306;2022-08-21T05:31:36;101386.38;;;13.57;94.44
25238;BME280;13185;50.872;5.306;2022-08-21T05:34:02;101384.78;;;13.67;94.18
25238;BME280;13185;50.872;5.306;2022-08-21T05:36:29;101387.56;;;13.78;94.21
25238;BME280;13185;50.872;5.306;2022-08-21T05:38:54;101390.50;;;13.88;93.61
25238;BME280;13185;50.872;5.306;2022-08-21T05:41:20;101384.22;;;14.00;93.77
25238;BME280;13185;50.872;5.306;2022-08-21T05:43:45;101391.22;;;14.15;94.02
25238;BME280;13185;50.872;5.306;2022-08-21T05:46:11;101389.28;;;14.30;92.94
25238;BME280;13185;50.872;5.306;2022-08-21T05:48:36;101393.59;;;14.46;92.33
25238;BME280;13185;50.872;5.306;2022-08-21T05:51:08;101391.50;;;14.62;91.44
25238;BME280;13185;50.872;5.306;2022-08-21T05:53:33;101395.66;;;14.79;90.98
25238;BME280;13185;50.872;5.306;2022-08-21T05:55:59;101405.56;;;14.91;89.92
25238;BME280;13185;50.872;5.306;2022-08-21T05:58:24;101394.81;;;15.02;89.20
25238;BME280;13185;50.872;5.306;2022-08-21T06:00:51;101395.84;;;15.12;89.07
25238;BME280;13185;50.872;5.306;2022-08-21T06:03:24;101397.75;;;15.23;88.32
25238;BME280;13185;50.872;5.306;2022-08-21T06:05:49;101394.81;;;15.26;88.11
25238;BME280;13185;50.872;5.306;2022-08-21T06:08:16;101399.38;;;15.37;88.36
25238;BME280;13185;50.872;5.306;2022-08-21T06:10:43;101403.72;;;15.50;87.50
25238;BME280;13185;50.872;5.306;2022-08-21T06:13:09;101401.75;;;15.52;87.55
25238;BME280;13185;50.872;5.306;2022-08-21T06:15:35;101410.50;;;15.56;87.83
25238;BME280;13185;50.872;5.306;2022-08-21T06:18:01;101403.91;;;15.60;88.45
25238;BME280;13185;50.872;5.306;2022-08-21T06:20:27;101403.22;;;15.69;87.76
25238;BME280;13185;50.872;5.306;2022-08-21T06:22:53;101410.72;;;15.77;87.49
25238;BME280;13185;50.872;5.306;2022-08-21T06:25:19;101419.47;;;15.92;87.76
25238;BME280;13185;50.872;5.306;2022-08-21T06:27:45;101407.69;;;16.04;87.12
25238;BME280;13185;50.872;5.306;2022-08-21T06:30:11;101411.03;;;16.19;86.38
25238;BME280;13185;50.872;5.306;2022-08-21T06:32:37;101401.81;;;16.32;85.63
25238;BME280;13185;50.872;5.306;2022-08-21T06:35:03;101406.00;;;16.48;85.13
25238;BME280;13185;50.872;5.306;2022-08-21T06:37:29;101398.47;;;16.62;83.87
25238;BME280;13185;50.872;5.306;2022-08-21T06:39:54;101398.22;;;16.77;83.38
25238;BME280;13185;50.872;5.306;2022-08-21T06:42:20;101400.66;;;16.91;82.77
25238;BME280;13185;50.872;5.306;2022-08-21T06:44:45;101409.72;;;17.12;82.13
25238;BME280;13185;50.872;5.306;2022-08-21T06:47:11;101413.84;;;17.27;81.00
25238;BME280;13185;50.872;5.306;2022-08-21T06:49:36;101407.84;;;17.45;80.97
25238;BME280;13185;50.872;5.306;2022-08-21T06:52:02;101407.53;;;17.59;80.09
25238;BME280;13185;50.872;5.306;2022-08-21T06:54:28;101412.81;;;17.72;80.00
25238;BME280;13185;50.872;5.306;2022-08-21T06:56:54;101412.47;;;17.86;79.73
25238;BME280;13185;50.872;5.306;2022-08-21T06:59:19;101429.41;;;17.99;78.51
25238;BME280;13185;50.872;5.306;2022-08-21T07:01:44;101415.88;;;18.09;78.32
25238;BME280;13185;50.872;5.306;2022-08-21T07:04:10;101419.00;;;18.25;77.08
25238;BME280;13185;50.872;5.306;2022-08-21T07:06:36;101424.19;;;18.38;76.57
25238;BME280;13185;50.872;5.306;2022-08-21T07:09:02;101411.69;;;18.56;76.15
25238;BME280;13185;50.872;5.306;2022-08-21T07:11:28;101420.34;;;18.71;75.63
25238;BME280;13185;50.872;5.306;2022-08-21T07:13:53;101411.22;;;18.82;75.11
25238;BME280;13185;50.872;5.306;2022-08-21T07:16:21;101409.38;;;18.92;74.73
25238;BME280;13185;50.872;5.306;2022-08-21T07:18:48;101404.81;;;19.02;74.36
25238;BME280;13185;50.872;5.306;2022-08-21T07:21:15;101402.69;;;19.15;74.28
25238;BME280;13185;50.872;5.306;2022-08-21T07:23:44;101386.53;;;19.33;73.76
25238;BME280;13185;50.872;5.306;2022-08-21T07:26:11;101394.69;;;19.33;72.09
25238;BME280;13185;50.872;5.306;2022-08-21T07:28:37;101392.41;;;19.28;72.60
25238;BME280;13185;50.872;5.306;2022-08-21T07:31:03;101399.25;;;19.23;72.11
25238;BME280;13185;50.872;5.306;2022-08-21T07:33:32;101399.56;;;19.20;72.57
25238;BME280;13185;50.872;5.306;2022-08-21T07:35:58;101398.69;;;19.19;72.42
25238;BME280;13185;50.872;5.306;2022-08-21T07:38:24;101400.66;;;19.17;72.58
25238;BME280;13185;50.872;5.306;2022-08-21T07:40:51;101397.94;;;19.17;73.05
25238;BME280;13185;50.872;5.306;2022-08-21T07:43:17;101402.41;;;19.18;73.17
25238;BME280;13185;50.872;5.306;2022-08-21T07:45:44;101398.69;;;19.10;73.22
25238;BME280;13185;50.872;5.306;2022-08-21T07:48:09;101399.69;;;19.09;73.49
25238;BME280;13185;50.872;5.306;2022-08-21T07:50:35;101400.81;;;19.06;74.03
25238;BME280;13185;50.872;5.306;2022-08-21T07:53:00;101401.81;;;19.05;73.97
25238;BME280;13185;50.872;5.306;2022-08-21T07:55:26;101403.81;;;19.03;73.50
25238;BME280;13185;50.872;5.306;2022-08-21T07:57:51;101403.09;;;19.01;73.31
25238;BME280;13185;50.872;5.306;2022-08-21T08:00:21;101395.81;;;19.01;72.87
25238;BME280;13185;50.872;5.306;2022-08-21T08:02:48;101393.66;;;19.05;73.12
25238;BME280;13185;50.872;5.306;2022-08-21T08:05:20;101400.81;;;19.16;73.35
25238;BME280;13185;50.872;5.306;2022-08-21T08:07:46;101397.53;;;19.22;72.65
25238;BME280;13185;50.872;5.306;2022-08-21T08:10:13;101396.09;;;19.27;71.66
25238;BME280;13185;50.872;5.306;2022-08-21T08:12:41;101400.13;;;19.33;71.16
25238;BME280;13185;50.872;5.306;2022-08-21T08:15:11;101396.53;;;19.32;71.20
25238;BME280;13185;50.872;5.306;2022-08-21T08:17:37;101383.81;;;19.33;71.53
25238;BME280;13185;50.872;5.306;2022-08-21T08:20:05;101398.97;;;19.36;71.32
25238;BME280;13185;50.872;5.306;2022-08-21T08:22:33;101394.13;;;19.39;71.20
25238;BME280;13185;50.872;5.306;2022-08-21T08:24:59;101398.41;;;19.42;70.47
25238;BME280;13185;50.872;5.306;2022-08-21T08:27:25;101396.09;;;19.47;70.07
25238;BME280;13185;50.872;5.306;2022-08-21T08:29:51;101393.81;;;19.52;70.24
25238;BME280;13185;50.872;5.306;2022-08-21T08:32:16;101389.81;;;19.56;69.92
25238;BME280;13185;50.872;5.306;2022-08-21T08:34:42;101385.38;;;19.55;69.60
25238;BME280;13185;50.872;5.306;2022-08-21T08:37:09;101382.63;;;19.55;69.89
25238;BME280;13185;50.872;5.306;2022-08-21T08:39:35;101383.13;;;19.60;69.94
25238;BME280;13185;50.872;5.306;2022-08-21T08:44:36;101359.75;;;19.67;69.73
25238;BME280;13185;50.872;5.306;2022-08-21T08:47:03;101365.63;;;19.72;69.04
25238;BME280;13185;50.872;5.306;2022-08-21T08:49:37;101359.31;;;19.81;68.98
25238;BME280;13185;50.872;5.306;2022-08-21T08:52:15;101358.41;;;19.91;68.86
25238;BME280;13185;50.872;5.306;2022-08-21T08:54:45;101362.09;;;19.99;68.56
25238;BME280;13185;50.872;5.306;2022-08-21T08:57:17;101362.63;;;20.12;68.10
25238;BME280;13185;50.872;5.306;2022-08-21T08:59:49;101354.44;;;20.22;67.89
25238;BME280;13185;50.872;5.306;2022-08-21T09:02:16;101356.38;;;20.30;67.17
25238;BME280;13185;50.872;5.306;2022-08-21T09:04:43;101367.13;;;20.31;67.19
25238;BME280;13185;50.872;5.306;2022-08-21T09:07:19;101357.19;;;20.40;66.78
25238;BME280;13185;50.872;5.306;2022-08-21T09:15:35;101357.56;;;20.64;65.76
25238;BME280;13185;50.872;5.306;2022-08-21T09:26:13;101347.44;;;20.74;64.77
25238;BME280;13185;50.872;5.306;2022-08-21T09:28:40;101342.53;;;20.78;63.78
25238;BME280;13185;50.872;5.306;2022-08-21T09:31:15;101349.31;;;20.74;63.57
25238;BME280;13185;50.872;5.306;2022-08-21T09:33:45;101342.59;;;20.68;64.16
25238;BME280;13185;50.872;5.306;2022-08-21T09:36:10;101347.44;;;20.74;64.18
25238;BME280;13185;50.872;5.306;2022-08-21T09:38:37;101337.25;;;20.77;65.02
25238;BME280;13185;50.872;5.306;2022-08-21T09:41:09;101348.94;;;20.87;64.78
25238;BME280;13185;50.872;5.306;2022-08-21T09:43:37;101358.06;;;20.95;64.41
25238;BME280;13185;50.872;5.306;2022-08-21T09:46:10;101347.69;;;20.99;64.17
25238;BME280;13185;50.872;5.306;2022-08-21T09:48:45;101349.25;;;21.01;64.38
25238;BME280;13185;50.872;5.306;2022-08-21T09:51:20;101343.72;;;21.11;63.28
25238;BME280;13185;50.872;5.306;2022-08-21T09:53:55;101341.69;;;21.13;63.36
25238;BME280;13185;50.872;5.306;2022-08-21T09:56:29;101339.56;;;21.25;63.26
25238;BME280;13185;50.872;5.306;2022-08-21T09:59:29;101333.38;;;21.32;63.37
25238;BME280;13185;50.872;5.306;2022-08-21T10:01:58;101337.09;;;21.49;61.81
25238;BME280;13185;50.872;5.306;2022-08-21T10:04:35;101339.91;;;21.57;62.34
25238;BME280;13185;50.872;5.306;2022-08-21T10:07:09;101341.28;;;21.61;62.44
25238;BME280;13185;50.872;5.306;2022-08-21T10:09:35;101336.50;;;21.64;62.69
25238;BME280;13185;50.872;5.306;2022-08-21T10:17:44;101326.25;;;21.83;59.73
25238;BME280;13185;50.872;5.306;2022-08-21T10:20:09;101329.88;;;21.92;59.98
25238;BME280;13185;50.872;5.306;2022-08-21T10:22:47;101324.09;;;21.95;59.54
25238;BME280;13185;50.872;5.306;2022-08-21T10:25:31;101329.59;;;22.03;58.51
25238;BME280;13185;50.872;5.306;2022-08-21T10:28:09;101331.13;;;22.06;57.20
25238;BME280;13185;50.872;5.306;2022-08-21T10:33:51;101325.97;;;22.21;57.50
25238;BME280;13185;50.872;5.306;2022-08-21T10:36:30;101318.03;;;22.43;57.05
25238;BME280;13185;50.872;5.306;2022-08-21T10:41:57;101324.06;;;22.71;54.76
25238;BME280;13185;50.872;5.306;2022-08-21T10:44:31;101315.91;;;22.80;54.99
25238;BME280;13185;50.872;5.306;2022-08-21T10:47:08;101320.91;;;22.84;54.84
25238;BME280;13185;50.872;5.306;2022-08-21T10:55:31;101330.16;;;22.99;54.94
25238;BME280;13185;50.872;5.306;2022-08-21T10:58:02;101318.53;;;22.97;54.74
25238;BME280;13185;50.872;5.306;2022-08-21T11:03:20;101324.78;;;22.73;55.66
25238;BME280;13185;50.872;5.306;2022-08-21T11:05:52;101317.75;;;22.63;56.27
25238;BME280;13185;50.872;5.306;2022-08-21T11:08:24;101320.31;;;22.64;56.49
25238;BME280;13185;50.872;5.306;2022-08-21T11:11:05;101314.03;;;22.72;56.68
25238;BME280;13185;50.872;5.306;2022-08-21T11:13:42;101312.13;;;22.81;56.17
25238;BME280;13185;50.872;5.306;2022-08-21T11:19:16;101321.53;;;22.78;56.79
25238;BME280;13185;50.872;5.306;2022-08-21T11:21:52;101321.84;;;22.67;56.72
25238;BME280;13185;50.872;5.306;2022-08-21T11:24:30;101322.16;;;22.56;55.82
25238;BME280;13185;50.872;5.306;2022-08-21T11:27:20;101318.75;;;22.54;56.46
25238;BME280;13185;50.872;5.306;2022-08-21T11:29:55;101319.81;;;22.69;56.97
25238;BME280;13185;50.872;5.306;2022-08-21T11:32:47;101319.31;;;22.73;55.10
25238;BME280;13185;50.872;5.306;2022-08-21T11:38:01;101312.72;;;22.84;55.03
25238;BME280;13185;50.872;5.306;2022-08-21T11:51:48;101309.41;;;22.81;55.31
25238;BME280;13185;50.872;5.306;2022-08-21T11:54:29;101309.75;;;22.77;55.43
25238;BME280;13185;50.872;5.306;2022-08-21T11:57:02;101309.56;;;22.71;54.62
25238;BME280;13185;50.872;5.306;2022-08-21T11:59:40;101311.69;;;22.85;55.24
25238;BME280;13185;50.872;5.306;2022-08-21T12:02:14;101311.19;;;22.98;55.06
25238;BME280;13185;50.872;5.306;2022-08-21T12:04:51;101309.66;;;23.12;54.04
25238;BME280;13185;50.872;5.306;2022-08-21T12:07:31;101312.88;;;23.23;53.66
25238;BME280;13185;50.872;5.306;2022-08-21T12:09:58;101305.19;;;23.43;54.25
25238;BME280;13185;50.872;5.306;2022-08-21T12:12:31;101312.03;;;23.64;53.41
25238;BME280;13185;50.872;5.306;2022-08-21T12:20:43;101308.72;;;23.93;52.54
25238;BME280;13185;50.872;5.306;2022-08-21T12:25:41;101311.09;;;24.04;52.07
25238;BME280;13185;50.872;5.306;2022-08-21T12:28:10;101314.34;;;24.07;51.20
25238;BME280;13185;50.872;5.306;2022-08-21T12:30:42;101312.47;;;24.08;51.09
25238;BME280;13185;50.872;5.306;2022-08-21T12:35:47;101302.88;;;24.04;49.68
25238;BME280;13185;50.872;5.306;2022-08-21T12:38:29;101303.06;;;23.94;50.60
25238;BME280;13185;50.872;5.306;2022-08-21T12:40:58;101302.59;;;23.82;49.84
25238;BME280;13185;50.872;5.306;2022-08-21T12:43:31;101299.03;;;23.74;49.82
25238;BME280;13185;50.872;5.306;2022-08-21T12:45:58;101302.97;;;23.71;50.01
25238;BME280;13185;50.872;5.306;2022-08-21T12:48:33;101302.47;;;23.59;50.06
25238;BME280;13185;50.872;5.306;2022-08-21T12:51:16;101298.88;;;23.51;50.48
25238;BME280;13185;50.872;5.306;2022-08-21T12:53:48;101305.19;;;23.51;50.91
25238;BME280;13185;50.872;5.306;2022-08-21T12:56:16;101293.88;;;23.54;51.08
25238;BME280;13185;50.872;5.306;2022-08-21T12:58:48;101296.16;;;23.59;51.04
25238;BME280;13185;50.872;5.306;2022-08-21T13:01:33;101295.63;;;23.64;51.01
25238;BME280;13185;50.872;5.306;2022-08-21T13:04:35;101298.00;;;23.75;51.54
25238;BME280;13185;50.872;5.306;2022-08-21T13:07:06;101301.56;;;23.92;52.03
25238;BME280;13185;50.872;5.306;2022-08-21T13:09:33;101305.22;;;24.23;51.09
25238;BME280;13185;50.872;5.306;2022-08-21T13:11:59;101303.00;;;24.58;50.10
25238;BME280;13185;50.872;5.306;2022-08-21T13:14:31;101302.50;;;24.85;49.50
25238;BME280;13185;50.872;5.306;2022-08-21T13:16:59;101303.34;;;24.86;47.75
25238;BME280;13185;50.872;5.306;2022-08-21T13:19:26;101305.81;;;24.81;47.56
25238;BME280;13185;50.872;5.306;2022-08-21T13:21:52;101296.41;;;24.75;47.88
25238;BME280;13185;50.872;5.306;2022-08-21T13:26:46;101299.91;;;24.92;47.03
25238;BME280;13185;50.872;5.306;2022-08-21T13:29:15;101295.81;;;25.11;46.30
25238;BME280;13185;50.872;5.306;2022-08-21T13:31:47;101281.31;;;25.25;45.53
25238;BME280;13185;50.872;5.306;2022-08-21T13:34:14;101286.44;;;25.43;46.04
25238;BME280;13185;50.872;5.306;2022-08-21T13:36:42;101298.13;;;25.59;45.76
25238;BME280;13185;50.872;5.306;2022-08-21T13:39:10;101285.13;;;25.76;45.53
25238;BME280;13185;50.872;5.306;2022-08-21T13:41:40;101287.31;;;25.96;44.38
25238;BME280;13185;50.872;5.306;2022-08-21T13:44:17;101287.13;;;25.97;44.22
25238;BME280;13185;50.872;5.306;2022-08-21T13:46:43;101288.63;;;25.85;44.10
25238;BME280;13185;50.872;5.306;2022-08-21T13:49:09;101283.75;;;25.57;44.65
25238;BME280;13185;50.872;5.306;2022-08-21T13:51:36;101294.41;;;25.38;44.55
25238;BME280;13185;50.872;5.306;2022-08-21T13:54:14;101277.88;;;25.60;44.39
25238;BME280;13185;50.872;5.306;2022-08-21T13:56:45;101279.81;;;25.89;44.77
25238;BME280;13185;50.872;5.306;2022-08-21T13:59:11;101282.09;;;26.01;43.03
25238;BME280;13185;50.872;5.306;2022-08-21T14:01:39;101278.28;;;25.72;43.70
25238;BME280;13185;50.872;5.306;2022-08-21T14:04:20;101279.16;;;25.50;44.00
25238;BME280;13185;50.872;5.306;2022-08-21T14:06:47;101276.63;;;25.48;43.85